Detall de PIREP

Printer-friendly versionPDF version

[2012/06/08 17:28:00]
Flight IATA:CT2308
Pilot Number:042
Company ICAO:CAT
Aircraft Type:F70/A
PAX:50
Aircraft Registration:PFJ
Departing Airport: LIEA
Destination Airport: LIMJ
Alternate Airport:LIMC
Online: VATSIM
Route:POULP/N240F140 L42 AJO/N240F180 A9 TORTU M858 UNITA
Flight Level:F220
No Slew and time accel
No pause
Crash detect
Detect pilot in Cockpit between each 30 and 45 minutes
17:28 Zero fuel Weight: 72667 Lbs, Fuel Weight: 22678 Lbs
17:28 VATSIM:LIEA 081650Z 29005KT 260V330 CAVOK 28/20 Q1009
17:28 VATSIM:LIMJ 081650Z 13004KT 9999 FEW050 24/17 Q1011
17:28 VOICE CATALONIAN
17:32 Parking Brakes off
17:36 Take-off
17:36 Take off Weight: 95024 Lbs
17:36 Wind: 291º @ 005 Knots Heading: 022º
17:36 POS N40º 37´ 57´´ E008º 17´ 28´´
17:36 Gear Up: 146 Knots
17:36 Flaps:2 at 146 Knots
17:37 Flaps:1 at 152 Knots
17:37 Flaps:0 at 236 Knots
17:49 TOC
17:49 Fuel Weight: 20738 Lb
17:51 Wind:152º@010 Knots Heading: 019º Ground Speed: 381 Knots Altitude 21879 ft
18:06 Wind:027º@019 Knots Heading: 005º Ground Speed: 420 Knots Altitude 21929 ft
18:06 TOD
18:06 Fuel Weight: 19094 Lb
18:16 Flaps:1 at 201 Knots
18:19 Gear Down: 186 Knots
18:19 Flaps:2 at 186 Knots
18:19 Flaps:3 at 181 Knots
18:20 Flaps:4 at 157 Knots
18:20 Flaps:3 at 155 Knots
18:21 Wind:139º@004 Knots Heading: 285º Ground Speed: 155 Knots Altitude 902 ft
18:22 TouchDown:Rate -319 ft/min Speed: 109 Knots
18:22 VATSIM:LIMJ 081750Z 14004KT 9999 FEW055 23/17 Q1011
18:22 Land
18:22 Wind:139º@004 Knots
18:22 Heading: 277º
18:22 Flight Duration: 00:46
18:22 Landing Weight: 91053 Lbs
18:22 POS N44º 24´ 50´´ E008º 49´ 55´´
18:27 Parking brakes on
18:27 Block to Block Duration: 00:55
18:27 Final Fuel: 18123 Lbls
18:27 Spent Fuel: 4554 Lbls
18:27 Flight Length: 248 NM
18:27 TOD Land Length: 67 NM

Exportar CSV

Powered by Drupal - Modified by Danger4k